Time;durP1;ratioP1;P1;durP2;ratioP2;P2;SDS_P1;SDS_P2;PMS_P1;PMS_P2;Temp;Humidity;BMP_temperature;BMP_pressure;BME280_temperature;BME280_humidity;BME280_pressure;Samples;Min_cycle;Max_cycle;Signal;HPM_P1;HPM_P2
2022/10/12 00:00:48;;;;;;;14.33;13.03;;;13.80;99.90;;;;;;5049423;28;20674;-90
2022/10/12 00:03:15;;;;;;;17.33;15.00;;;13.80;99.90;;;;;;5045350;28;20641;-90
2022/10/12 00:05:42;;;;;;;13.50;11.33;;;13.80;99.90;;;;;;5043789;28;21272;-89
2022/10/12 00:08:10;;;;;;;18.33;16.50;;;13.80;99.90;;;;;;5047916;28;20619;-89
2022/10/12 00:10:40;;;;;;;19.03;17.27;;;13.80;99.90;;;;;;5047904;28;20711;-89
2022/10/12 00:13:07;;;;;;;19.13;16.63;;;13.70;99.90;;;;;;5045162;28;20990;-89
2022/10/12 00:15:36;;;;;;;18.77;15.90;;;13.60;99.90;;;;;;5046644;28;20651;-90
2022/10/12 00:18:03;;;;;;;19.97;14.57;;;13.60;99.90;;;;;;5046025;28;20643;-89
2022/10/12 00:20:30;;;;;;;15.63;14.13;;;13.10;99.90;;;;;;5047357;28;20753;-90
2022/10/12 00:22:57;;;;;;;19.07;14.30;;;13.20;99.90;;;;;;5047844;28;21204;-90
2022/10/12 00:25:26;;;;;;;14.60;13.23;;;13.40;99.90;;;;;;5048550;28;21264;-89
2022/10/12 00:27:52;;;;;;;16.03;13.83;;;13.40;99.90;;;;;;5039420;28;20737;-89
2022/10/12 00:30:20;;;;;;;15.17;13.67;;;13.30;99.90;;;;;;5040785;28;20642;-90
2022/10/12 00:32:46;;;;;;;15.93;13.77;;;13.00;99.90;;;;;;5043698;28;20625;-90
2022/10/12 00:35:14;;;;;;;16.07;14.57;;;13.10;99.90;;;;;;5047430;28;20772;-90
2022/10/12 00:37:40;;;;;;;19.27;14.90;;;13.00;99.90;;;;;;5041701;28;20625;-90
2022/10/12 00:40:08;;;;;;;15.13;13.83;;;12.90;99.90;;;;;;5045331;28;20669;-89
2022/10/12 00:42:37;;;;;;;17.50;14.40;;;12.90;99.90;;;;;;5046205;28;20636;-90
2022/10/12 00:45:04;;;;;;;15.77;14.27;;;12.70;99.90;;;;;;5043982;28;21184;-89
2022/10/12 00:47:35;;;;;;;16.07;14.40;;;12.80;99.90;;;;;;5046685;28;20693;-90
2022/10/12 00:50:08;;;;;;;17.70;16.10;;;12.70;99.90;;;;;;5043689;28;20622;-89
2022/10/12 00:52:40;;;;;;;16.43;14.93;;;12.70;99.90;;;;;;5043548;28;20623;-89
2022/10/12 00:55:10;;;;;;;15.57;13.97;;;12.60;99.90;;;;;;5041549;28;20745;-89
2022/10/12 00:57:38;;;;;;;17.80;15.50;;;12.50;99.90;;;;;;5041647;28;20716;-90
2022/10/12 01:00:08;;;;;;;19.43;17.40;;;12.30;99.90;;;;;;5043782;28;20765;-89
2022/10/12 01:02:38;;;;;;;18.30;15.83;;;12.50;99.90;;;;;;5043799;28;20658;-90
2022/10/12 01:05:07;;;;;;;18.27;16.43;;;12.50;99.90;;;;;;5048060;28;20697;-89
2022/10/12 01:07:34;;;;;;;18.33;16.50;;;12.40;99.90;;;;;;5040422;28;20652;-89
2022/10/12 01:10:01;;;;;;;16.97;15.13;;;12.40;99.90;;;;;;5048161;28;20618;-90
2022/10/12 01:12:28;;;;;;;18.50;15.27;;;12.40;99.90;;;;;;5043820;28;20633;-89
2022/10/12 01:14:56;;;;;;;20.83;15.93;;;12.40;99.90;;;;;;5050581;28;20746;-90
2022/10/12 01:17:35;;;;;;;18.10;16.33;;;12.40;99.90;;;;;;5055010;28;20744;-90
2022/10/12 01:20:32;;;;;;;17.83;16.23;;;12.00;99.90;;;;;;5048209;28;20676;-90
2022/10/12 01:23:23;;;;;;;18.70;16.83;;;12.40;99.90;;;;;;5039504;28;20622;-89
2022/10/12 01:26:04;;;;;;;21.20;17.97;;;12.60;99.90;;;;;;5045702;28;20992;-90
2022/10/12 01:28:38;;;;;;;20.63;17.50;;;12.50;99.90;;;;;;5042612;28;20996;-89
2022/10/12 01:31:15;;;;;;;19.17;17.23;;;12.50;99.90;;;;;;5045262;28;20653;-90
2022/10/12 01:33:45;;;;;;;17.90;16.10;;;12.40;99.90;;;;;;5046180;28;21452;-90
2022/10/12 01:36:18;;;;;;;18.10;16.70;;;12.10;99.90;;;;;;5046542;28;20626;-89
2022/10/12 01:38:51;;;;;;;21.20;19.20;;;12.40;99.90;;;;;;5043582;28;20625;-88
2022/10/12 01:41:22;;;;;;;22.80;19.53;;;12.60;99.90;;;;;;5046729;28;20669;-89
2022/10/12 01:43:51;;;;;;;20.63;18.50;;;12.40;99.90;;;;;;5047768;28;20652;-88
2022/10/12 01:46:45;;;;;;;20.47;18.27;;;12.30;99.90;;;;;;5042311;28;21032;-88
2022/10/12 01:49:15;;;;;;;19.63;17.93;;;12.50;99.90;;;;;;5038999;28;20610;-88
2022/10/12 01:52:01;;;;;;;20.10;18.20;;;12.20;99.90;;;;;;5041584;28;20626;-88
2022/10/12 01:54:42;;;;;;;24.40;19.80;;;12.20;99.90;;;;;;5042551;28;20645;-89
2022/10/12 01:57:19;;;;;;;22.50;20.20;;;11.90;99.90;;;;;;5046573;28;21152;-88
2022/10/12 01:59:53;;;;;;;22.73;20.53;;;12.40;99.90;;;;;;5050588;28;20669;-88
2022/10/12 02:02:32;;;;;;;23.40;21.23;;;11.70;99.90;;;;;;5047200;28;20689;-88
2022/10/12 02:05:04;;;;;;;24.87;22.57;;;11.90;99.90;;;;;;5048705;28;20653;-88
2022/10/12 02:07:40;;;;;;;23.83;21.60;;;12.10;99.90;;;;;;5046985;28;21137;-88
2022/10/12 02:10:12;;;;;;;26.17;21.87;;;11.70;99.90;;;;;;5042139;28;21143;-88
2022/10/12 02:12:41;;;;;;;24.13;21.47;;;11.70;99.90;;;;;;5045717;28;20619;-88
2022/10/12 02:15:12;;;;;;;25.43;22.80;;;11.90;99.90;;;;;;5045277;28;20645;-88
2022/10/12 02:17:43;;;;;;;26.73;23.20;;;11.90;99.90;;;;;;5050301;28;20636;-88
2022/10/12 02:20:13;;;;;;;25.10;22.60;;;11.90;99.90;;;;;;5054022;28;21110;-89
2022/10/12 02:22:41;;;;;;;26.17;23.67;;;11.80;99.90;;;;;;5053078;28;20642;-89
2022/10/12 02:25:26;;;;;;;28.03;25.13;;;11.80;99.90;;;;;;5053546;28;20650;-89
2022/10/12 02:27:59;;;;;;;28.47;25.53;;;11.80;99.90;;;;;;5051243;28;20617;-89
2022/10/12 02:30:27;;;;;;;27.70;24.87;;;11.30;99.90;;;;;;5068251;28;20653;-89
2022/10/12 02:33:02;;;;;;;27.57;24.67;;;11.70;99.90;;;;;;5068406;28;20641;-89
2022/10/12 02:35:34;;;;;;;27.30;24.60;;;11.20;99.90;;;;;;5068481;28;20651;-90
2022/10/12 02:38:07;;;;;;;27.13;24.43;;;11.60;99.90;;;;;;5067089;28;20594;-89
2022/10/12 02:40:38;;;;;;;26.30;23.60;;;11.20;99.90;;;;;;5063543;28;20642;-89
2022/10/12 02:43:11;;;;;;;26.53;24.00;;;11.10;99.90;;;;;;5043440;28;20626;-89
2022/10/12 02:45:42;;;;;;;27.80;24.90;;;11.20;99.90;;;;;;5039094;28;20646;-88
2022/10/12 02:48:14;;;;;;;26.73;24.20;;;10.90;99.90;;;;;;5042936;28;20629;-89
2022/10/12 02:50:42;;;;;;;28.70;25.87;;;11.00;99.90;;;;;;5045364;28;20606;-88
2022/10/12 02:53:09;;;;;;;27.77;25.07;;;11.30;99.90;;;;;;5044973;28;20633;-89
2022/10/12 02:55:38;;;;;;;29.57;26.57;;;11.30;99.90;;;;;;5042544;28;20661;-88
2022/10/12 02:58:05;;;;;;;29.70;26.97;;;11.40;99.90;;;;;;5042855;28;20622;-88
2022/10/12 03:00:34;;;;;;;35.03;27.23;;;11.50;99.90;;;;;;5042643;28;20654;-88
2022/10/12 03:03:00;;;;;;;29.23;26.33;;;11.60;99.90;;;;;;5046977;28;20583;-88
2022/10/12 03:05:28;;;;;;;30.33;27.27;;;11.20;99.90;;;;;;5040617;28;20682;-88
2022/10/12 03:07:55;;;;;;;30.87;27.90;;;11.70;99.90;;;;;;5045471;28;20634;-87
2022/10/12 03:10:22;;;;;;;32.03;28.77;;;11.30;99.90;;;;;;5047209;28;20650;-89
2022/10/12 03:12:49;;;;;;;31.80;28.70;;;11.60;99.90;;;;;;5050045;28;20686;-89
2022/10/12 03:15:16;;;;;;;28.80;25.77;;;11.10;99.90;;;;;;5044722;28;20654;-89
2022/10/12 03:17:43;;;;;;;29.60;26.70;;;11.50;99.90;;;;;;5052972;28;20715;-90
2022/10/12 03:20:11;;;;;;;31.73;28.43;;;11.30;99.90;;;;;;5047452;28;20666;-89
2022/10/12 03:22:41;;;;;;;30.10;27.10;;;11.70;99.90;;;;;;5046971;28;20662;-90
2022/10/12 03:25:08;;;;;;;29.80;26.97;;;11.60;99.90;;;;;;5046717;28;20660;-90
2022/10/12 03:27:35;;;;;;;29.50;26.80;;;11.60;99.90;;;;;;5056190;28;20680;-90
2022/10/12 03:30:02;;;;;;;28.77;25.03;;;11.60;99.90;;;;;;5046187;28;20633;-90
2022/10/12 03:32:28;;;;;;;27.17;24.67;;;11.50;99.90;;;;;;5048958;28;20614;-90
2022/10/12 03:34:55;;;;;;;27.77;25.37;;;11.60;99.90;;;;;;5047557;28;20984;-90
2022/10/12 03:37:22;;;;;;;27.03;24.33;;;11.60;99.90;;;;;;5042388;28;20640;-90
2022/10/12 03:39:51;;;;;;;26.27;23.70;;;11.40;99.90;;;;;;5048528;28;20636;-90
2022/10/12 03:42:17;;;;;;;26.50;23.77;;;11.60;99.90;;;;;;5059314;28;20630;-92
2022/10/12 03:44:44;;;;;;;24.67;22.37;;;11.60;99.90;;;;;;5064107;28;20665;-90
2022/10/12 03:47:12;;;;;;;25.07;22.77;;;11.70;99.90;;;;;;5064381;28;20662;-90
2022/10/12 03:49:39;;;;;;;23.73;21.60;;;11.70;99.90;;;;;;5062575;28;20645;-91
2022/10/12 03:52:06;;;;;;;23.60;21.40;;;11.70;99.90;;;;;;5047595;28;20634;-90
2022/10/12 03:54:33;;;;;;;22.70;20.43;;;11.60;99.90;;;;;;5050683;28;20650;-89
2022/10/12 03:57:01;;;;;;;25.60;22.97;;;11.80;99.90;;;;;;5044106;28;20629;-89
2022/10/12 03:59:28;;;;;;;24.30;21.97;;;11.90;99.90;;;;;;5052970;28;20734;-89
2022/10/12 04:01:55;;;;;;;25.30;22.70;;;11.80;99.90;;;;;;5054457;28;20665;-89
2022/10/12 04:04:22;;;;;;;23.60;21.57;;;11.80;99.90;;;;;;5050764;28;20653;-90
2022/10/12 04:06:49;;;;;;;23.37;21.03;;;11.90;99.90;;;;;;5054645;28;20629;-90
2022/10/12 04:09:15;;;;;;;22.47;20.13;;;11.90;99.90;;;;;;5050564;28;20636;-89
2022/10/12 04:11:42;;;;;;;23.50;20.97;;;11.70;99.90;;;;;;5054316;28;20642;-90
2022/10/12 04:14:11;;;;;;;23.13;20.67;;;12.00;99.90;;;;;;5047795;28;21347;-90
2022/10/12 04:16:38;;;;;;;24.00;21.57;;;11.90;99.90;;;;;;5040179;28;20713;-91
2022/10/12 04:19:05;;;;;;;25.00;20.97;;;11.90;99.90;;;;;;5051008;28;20624;-90
2022/10/12 04:21:32;;;;;;;24.60;20.27;;;12.00;99.90;;;;;;5044677;28;21044;-91
2022/10/12 04:23:58;;;;;;;24.07;21.97;;;12.00;99.90;;;;;;5042707;28;20688;-91
2022/10/12 04:26:25;;;;;;;22.50;20.30;;;11.60;99.90;;;;;;5046032;28;20606;-90
2022/10/12 04:28:52;;;;;;;26.57;22.10;;;11.90;99.90;;;;;;5043011;28;20699;-90
2022/10/12 04:31:21;;;;;;;28.97;22.27;;;11.90;99.90;;;;;;5050646;28;20669;-88
2022/10/12 04:33:48;;;;;;;24.30;21.87;;;11.80;99.90;;;;;;5046510;28;20649;-90
2022/10/12 04:36:14;;;;;;;25.10;22.30;;;11.60;99.90;;;;;;5041417;28;20692;-89
2022/10/12 04:38:41;;;;;;;22.40;20.20;;;11.60;99.90;;;;;;5047761;28;20718;-88
2022/10/12 04:41:08;;;;;;;26.63;21.87;;;12.00;99.90;;;;;;5042781;28;20670;-89
2022/10/12 04:43:35;;;;;;;22.93;20.60;;;11.60;99.90;;;;;;5042787;28;20634;-89
2022/10/12 04:46:01;;;;;;;22.67;20.00;;;12.10;99.90;;;;;;5040803;28;20633;-88
2022/10/12 04:48:31;;;;;;;24.23;21.70;;;12.10;99.90;;;;;;5051578;28;20661;-88
2022/10/12 04:50:58;;;;;;;21.60;19.50;;;11.80;99.90;;;;;;5043414;28;20692;-88
2022/10/12 04:53:24;;;;;;;22.93;20.60;;;11.80;99.90;;;;;;5042719;28;20599;-88
2022/10/12 04:55:51;;;;;;;23.73;21.43;;;11.80;99.90;;;;;;5045438;28;20638;-88
2022/10/12 04:58:18;;;;;;;20.03;18.33;;;12.20;99.90;;;;;;5046665;28;20753;-88
2022/10/12 05:00:47;;;;;;;21.17;19.10;;;11.80;99.90;;;;;;5042922;28;20784;-88
2022/10/12 05:03:14;;;;;;;22.40;20.20;;;11.90;99.90;;;;;;5046481;28;20630;-88
2022/10/12 05:05:45;;;;;;;22.47;20.43;;;12.20;99.90;;;;;;5043774;28;20618;-88
2022/10/12 05:08:12;;;;;;;22.20;20.20;;;11.90;99.90;;;;;;5048343;28;20594;-88
2022/10/12 05:10:40;;;;;;;26.93;21.33;;;12.30;99.90;;;;;;5044545;28;20638;-89
2022/10/12 05:13:07;;;;;;;22.17;19.97;;;12.10;99.90;;;;;;5045328;28;20640;-88
2022/10/12 05:15:33;;;;;;;23.03;20.60;;;12.20;99.90;;;;;;5047154;28;20618;-89
2022/10/12 05:18:01;;;;;;;23.37;21.13;;;12.40;99.90;;;;;;5046214;28;20649;-89
2022/10/12 05:20:28;;;;;;;31.20;27.90;;;12.50;99.90;;;;;;5022979;28;20677;-88
2022/10/12 05:22:57;;;;;;;49.27;44.57;;;12.20;99.90;;;;;;5040406;28;20725;-89
2022/10/12 05:25:24;;;;;;;29.03;26.13;;;12.40;99.90;;;;;;5039699;28;20630;-88
2022/10/12 05:27:51;;;;;;;27.00;21.20;;;12.50;99.90;;;;;;5037858;28;20988;-88
2022/10/12 05:30:18;;;;;;;27.00;20.67;;;12.10;99.90;;;;;;5039597;28;21705;-88
2022/10/12 05:32:44;;;;;;;24.27;21.47;;;12.20;99.90;;;;;;5039826;28;20633;-89
2022/10/12 05:35:11;;;;;;;29.27;24.53;;;12.20;99.90;;;;;;5039484;28;20824;-89
2022/10/12 05:37:38;;;;;;;25.83;23.03;;;12.70;99.90;;;;;;5039180;28;20745;-89
2022/10/12 05:40:07;;;;;;;36.47;27.13;;;12.60;99.90;;;;;;5039370;28;20724;-89
2022/10/12 05:42:37;;;;;;;41.30;28.00;;;12.70;99.90;;;;;;5038630;28;20685;-89
2022/10/12 05:45:05;;;;;;;32.80;25.90;;;12.50;99.90;;;;;;5039199;28;20623;-89
2022/10/12 05:47:31;;;;;;;33.20;28.10;;;12.70;99.90;;;;;;5038505;28;20626;-88
2022/10/12 05:49:58;;;;;;;30.07;26.90;;;12.50;99.90;;;;;;5040500;28;20618;-88
2022/10/12 05:52:25;;;;;;;37.13;25.93;;;12.70;99.90;;;;;;5037902;28;21472;-89
2022/10/12 05:54:52;;;;;;;33.73;28.90;;;12.30;99.90;;;;;;5038342;28;20642;-89
2022/10/12 05:57:21;;;;;;;37.20;27.90;;;12.60;99.90;;;;;;5038382;28;20702;-88
2022/10/12 05:59:48;;;;;;;31.87;27.57;;;12.40;99.90;;;;;;5037695;28;20641;-88
2022/10/12 06:02:16;;;;;;;35.73;26.70;;;12.20;99.90;;;;;;5034897;28;21365;-88
2022/10/12 06:04:43;;;;;;;37.90;27.73;;;12.40;99.90;;;;;;5037626;28;20629;-88
2022/10/12 06:07:10;;;;;;;38.83;26.63;;;12.60;99.90;;;;;;5037321;28;20706;-88
2022/10/12 06:09:39;;;;;;;29.67;26.07;;;12.50;99.90;;;;;;5039413;28;20630;-88
2022/10/12 06:12:06;;;;;;;43.00;28.00;;;12.60;99.90;;;;;;5035714;28;20658;-88
2022/10/12 06:14:35;;;;;;;31.43;26.17;;;12.70;99.90;;;;;;5037753;28;20750;-88
2022/10/12 06:17:02;;;;;;;37.80;26.03;;;12.30;99.90;;;;;;5041017;28;20657;-88
2022/10/12 06:19:29;;;;;;;43.57;28.37;;;12.50;99.90;;;;;;5036998;28;21479;-88
2022/10/12 06:21:56;;;;;;;32.23;26.80;;;12.60;99.90;;;;;;5036992;28;20680;-90
2022/10/12 06:24:23;;;;;;;32.23;28.70;;;12.50;99.90;;;;;;5036355;28;20638;-87
2022/10/12 06:26:49;;;;;;;40.97;33.00;;;12.70;99.90;;;;;;5037612;28;21279;-90
2022/10/12 06:29:16;;;;;;;36.87;30.47;;;12.40;99.90;;;;;;5036757;28;20705;-89
2022/10/12 06:31:45;;;;;;;38.30;33.00;;;12.80;99.90;;;;;;5037611;28;21018;-89
2022/10/12 06:34:11;;;;;;;43.80;32.03;;;12.90;99.90;;;;;;5038209;28;20720;-90
2022/10/12 06:36:38;;;;;;;41.93;35.67;;;12.60;99.90;;;;;;5037775;28;20634;-89
2022/10/12 06:39:05;;;;;;;41.50;37.60;;;12.80;99.90;;;;;;5037889;28;20626;-89
2022/10/12 06:41:32;;;;;;;36.23;28.00;;;12.40;99.90;;;;;;5038279;28;20685;-89
2022/10/12 06:43:59;;;;;;;34.07;28.60;;;12.50;99.90;;;;;;5036218;28;20640;-89
2022/10/12 06:46:26;;;;;;;32.50;26.13;;;12.70;99.90;;;;;;5038716;28;21001;-89
2022/10/12 06:48:54;;;;;;;41.00;30.53;;;12.50;99.90;;;;;;5037386;28;20634;-89
2022/10/12 06:51:21;;;;;;;31.07;27.87;;;12.50;99.90;;;;;;5038019;28;20665;-89
2022/10/12 06:53:48;;;;;;;29.40;26.30;;;13.00;99.90;;;;;;5036694;28;20598;-89
2022/10/12 06:56:15;;;;;;;27.90;25.00;;;12.70;99.90;;;;;;5036823;28;21203;-90
2022/10/12 06:58:41;;;;;;;28.63;25.63;;;13.00;99.90;;;;;;5035896;28;20665;-90
2022/10/12 07:01:09;;;;;;;38.00;34.33;;;12.70;99.90;;;;;;5037991;28;20676;-89
2022/10/12 07:03:36;;;;;;;31.20;28.13;;;12.70;99.90;;;;;;5039691;28;20703;-90
2022/10/12 07:06:11;;;;;;;30.80;26.10;;;13.10;99.90;;;;;;5037456;28;21005;-89
2022/10/12 07:08:38;;;;;;;37.17;31.20;;;13.00;99.90;;;;;;5036050;28;20633;-90
2022/10/12 07:11:07;;;;;;;31.70;27.80;;;12.90;99.90;;;;;;5038544;28;21314;-91
2022/10/12 07:13:37;;;;;;;28.90;26.53;;;13.30;99.90;;;;;;5038716;28;20647;-93
2022/10/12 07:16:04;;;;;;;30.20;27.20;;;13.20;99.90;;;;;;5038707;28;20596;-88
2022/10/12 07:18:31;;;;;;;30.63;27.60;;;13.30;99.90;;;;;;5038181;28;20638;-89
2022/10/12 07:20:58;;;;;;;32.43;29.13;;;13.40;99.90;;;;;;5035801;28;20645;-90
2022/10/12 07:23:29;;;;;;;28.23;25.30;;;13.40;99.90;;;;;;5035279;28;21283;-89
2022/10/12 07:25:58;;;;;;;27.23;24.70;;;13.40;99.90;;;;;;5037285;28;21192;-89
2022/10/12 07:28:25;;;;;;;30.67;27.77;;;13.10;99.90;;;;;;5041818;28;20684;-89
2022/10/12 07:30:52;;;;;;;30.63;25.70;;;13.60;99.90;;;;;;5042898;28;20674;-89
2022/10/12 07:33:19;;;;;;;28.93;26.30;;;13.70;99.90;;;;;;5041835;28;20618;-91
2022/10/12 07:35:54;;;;;;;29.23;26.30;;;13.80;99.90;;;;;;5037341;28;20749;-90
2022/10/12 07:38:21;;;;;;;26.90;24.17;;;13.90;99.90;;;;;;5036966;28;21146;-89
2022/10/12 07:40:49;;;;;;;27.80;24.90;;;13.90;99.90;;;;;;5037032;28;20661;-88
2022/10/12 07:43:16;;;;;;;25.87;23.07;;;13.90;99.90;;;;;;5030675;28;20644;-89
2022/10/12 07:45:43;;;;;;;25.77;22.50;;;13.70;99.90;;;;;;5035373;28;20634;-90
2022/10/12 07:48:10;;;;;;;26.27;22.53;;;14.00;99.90;;;;;;5043004;28;20649;-91
2022/10/12 07:50:37;;;;;;;27.80;24.80;;;14.10;99.90;;;;;;5046025;28;20673;-90
2022/10/12 07:53:04;;;;;;;24.23;21.93;;;14.10;99.90;;;;;;5046064;28;20730;-89
2022/10/12 07:55:33;;;;;;;25.93;23.30;;;13.70;99.90;;;;;;5047022;28;21003;-92
2022/10/12 07:58:02;;;;;;;25.07;22.50;;;14.10;99.90;;;;;;5040139;28;20764;-86
2022/10/12 08:00:29;;;;;;;27.47;24.77;;;14.30;99.90;;;;;;5040397;28;20655;-87
2022/10/12 08:02:56;;;;;;;33.07;27.90;;;14.20;99.90;;;;;;5038839;28;20666;-86
2022/10/12 08:05:23;;;;;;;32.47;29.23;;;14.20;99.90;;;;;;5038421;28;20627;-85
2022/10/12 08:07:51;;;;;;;29.20;26.50;;;14.40;99.90;;;;;;5039520;28;20714;-85
2022/10/12 08:10:18;;;;;;;33.17;26.67;;;14.40;99.90;;;;;;5038367;28;21021;-85
2022/10/12 08:12:46;;;;;;;31.17;27.93;;;14.40;99.90;;;;;;5040687;28;20645;-86
2022/10/12 08:15:14;;;;;;;29.67;26.67;;;14.40;99.90;;;;;;5039406;28;20697;-86
2022/10/12 08:17:41;;;;;;;28.80;25.90;;;14.60;99.90;;;;;;5039545;28;20644;-86
2022/10/12 08:20:10;;;;;;;29.77;26.80;;;14.60;99.90;;;;;;5041716;28;20647;-86
2022/10/12 08:22:36;;;;;;;24.67;22.67;;;14.70;99.90;;;;;;5038874;28;20677;-86
2022/10/12 08:25:04;;;;;;;24.23;21.53;;;14.70;99.90;;;;;;5042274;28;20645;-86
2022/10/12 08:27:31;;;;;;;23.03;20.87;;;14.70;99.90;;;;;;5040633;28;21091;-84
2022/10/12 08:29:57;;;;;;;22.47;20.57;;;14.90;99.90;;;;;;5041273;28;20645;-85
2022/10/12 08:32:26;;;;;;;22.03;19.90;;;14.80;99.90;;;;;;5038471;28;20944;-85
2022/10/12 08:34:53;;;;;;;24.07;21.93;;;14.80;99.90;;;;;;5042754;28;20638;-86
2022/10/12 08:37:20;;;;;;;44.87;40.53;;;15.00;99.90;;;;;;5046751;28;21032;-85
2022/10/12 08:39:47;;;;;;;29.33;26.93;;;15.00;99.90;;;;;;5043836;28;20649;-86
2022/10/12 08:42:31;;;;;;;21.30;19.43;;;15.00;99.90;;;;;;5039222;28;20673;-85
2022/10/12 08:45:11;;;;;;;21.27;19.37;;;15.10;99.90;;;;;;5043662;28;20672;-85
2022/10/12 08:47:42;;;;;;;27.47;24.90;;;15.20;99.90;;;;;;5029519;28;20625;-86
2022/10/12 08:50:17;;;;;;;25.13;22.93;;;15.50;99.90;;;;;;5035270;28;20724;-86
2022/10/12 08:52:51;;;;;;;22.53;20.10;;;15.60;99.90;;;;;;5039498;28;20650;-86
2022/10/12 08:55:26;;;;;;;19.87;18.10;;;15.60;99.90;;;;;;5039651;28;21219;-86
2022/10/12 08:57:53;;;;;;;17.20;15.67;;;15.50;99.90;;;;;;5049882;28;21353;-86
2022/10/12 09:00:20;;;;;;;17.77;16.13;;;15.50;99.90;;;;;;5044490;28;20621;-86
2022/10/12 09:03:02;;;;;;;18.47;16.87;;;16.00;99.90;;;;;;5037900;28;20662;-85
2022/10/12 09:05:35;;;;;;;18.80;17.20;;;15.80;99.90;;;;;;5038105;28;20680;-87
2022/10/12 09:08:06;;;;;;;18.97;17.40;;;16.00;99.90;;;;;;5035493;28;20630;-86
2022/10/12 09:10:46;;;;;;;19.40;13.37;;;16.10;99.90;;;;;;5037324;28;20652;-87
2022/10/12 09:13:33;;;;;;;15.63;14.03;;;15.80;99.90;;;;;;5038760;28;20648;-85
2022/10/12 09:16:04;;;;;;;15.43;13.23;;;15.80;99.90;;;;;;5036539;28;20674;-86
2022/10/12 09:18:37;;;;;;;14.67;12.97;;;15.90;99.90;;;;;;5033829;28;21331;-86
2022/10/12 09:21:06;;;;;;;22.50;13.60;;;15.80;99.90;;;;;;5033811;28;21205;-85
2022/10/12 09:23:38;;;;;;;17.60;16.10;;;15.80;99.90;;;;;;5037487;28;20654;-84
2022/10/12 09:26:14;;;;;;;14.83;13.37;;;15.70;99.90;;;;;;5037787;28;20657;-85
2022/10/12 09:28:44;;;;;;;15.43;13.40;;;15.70;99.90;;;;;;5039735;28;20652;-85
2022/10/12 09:31:29;;;;;;;19.63;15.47;;;15.80;99.90;;;;;;5036556;28;20646;-84
2022/10/12 09:33:59;;;;;;;15.93;14.33;;;15.70;99.90;;;;;;5035848;28;20638;-85
2022/10/12 09:36:30;;;;;;;16.50;14.90;;;15.90;99.90;;;;;;5036678;28;21511;-85
2022/10/12 09:38:59;;;;;;;16.00;14.47;;;16.10;99.90;;;;;;5040923;28;20645;-86
2022/10/12 09:41:32;;;;;;;16.57;14.63;;;16.20;99.90;;;;;;5036856;28;20649;-85
2022/10/12 09:44:02;;;;;;;15.30;13.80;;;16.20;99.90;;;;;;5035861;28;20636;-85
2022/10/12 09:46:37;;;;;;;16.17;14.60;;;16.00;99.90;;;;;;5036993;28;20665;-85
2022/10/12 09:49:05;;;;;;;16.50;15.00;;;15.80;99.90;;;;;;5036276;28;20644;-86
2022/10/12 09:51:32;;;;;;;15.80;14.20;;;15.80;99.90;;;;;;5035606;28;21205;-85
2022/10/12 09:54:02;;;;;;;17.40;15.80;;;16.00;99.90;;;;;;5036420;28;21160;-85
2022/10/12 09:56:38;;;;;;;15.73;13.07;;;16.10;99.90;;;;;;5037343;28;20757;-86
2022/10/12 09:59:17;;;;;;;16.00;14.40;;;16.50;99.90;;;;;;5037287;28;20626;-86
2022/10/12 10:01:58;;;;;;;14.80;13.17;;;16.40;99.90;;;;;;5036838;28;21341;-87
2022/10/12 10:04:28;;;;;;;14.60;13.07;;;15.90;99.90;;;;;;5035332;28;20630;-85
2022/10/12 10:06:55;;;;;;;17.10;13.27;;;15.80;99.90;;;;;;5035897;28;20650;-86
2022/10/12 10:09:28;;;;;;;11.73;10.63;;;15.90;99.90;;;;;;5035799;28;20638;-85
2022/10/12 10:11:56;;;;;;;13.23;11.93;;;16.00;99.90;;;;;;5036571;28;20707;-86
2022/10/12 10:14:23;;;;;;;17.40;14.20;;;15.90;99.90;;;;;;5034336;28;20729;-86
2022/10/12 10:16:53;;;;;;;15.23;13.70;;;16.00;99.90;;;;;;5029804;28;20759;-86
2022/10/12 10:19:23;;;;;;;16.73;14.73;;;16.10;99.90;;;;;;5037927;28;20637;-86
2022/10/12 10:21:54;;;;;;;14.57;13.07;;;16.10;99.90;;;;;;5033422;28;20729;-85
2022/10/12 10:24:31;;;;;;;15.03;13.37;;;16.10;99.90;;;;;;5031055;28;21041;-85
2022/10/12 10:26:59;;;;;;;15.53;13.67;;;16.10;99.90;;;;;;5033085;28;20729;-85
2022/10/12 10:29:33;;;;;;;18.60;14.57;;;16.20;99.90;;;;;;5032389;28;20630;-86
2022/10/12 10:32:23;;;;;;;16.37;13.83;;;15.90;99.90;;;;;;5035369;28;20629;-86
2022/10/12 10:35:02;;;;;;;15.03;13.63;;;15.90;99.90;;;;;;5037532;28;21045;-86
2022/10/12 10:37:49;;;;;;;19.03;14.20;;;16.00;99.90;;;;;;5048215;28;20629;-86
2022/10/12 10:40:21;;;;;;;16.10;14.50;;;16.00;99.90;;;;;;5035874;28;20634;-86
2022/10/12 10:42:51;;;;;;;18.93;13.73;;;16.10;99.90;;;;;;5034638;28;21034;-86
2022/10/12 10:45:25;;;;;;;18.57;14.60;;;16.20;99.90;;;;;;5035565;28;20645;-87
2022/10/12 10:48:00;;;;;;;18.90;13.77;;;16.40;99.90;;;;;;5035715;28;20733;-87
2022/10/12 10:50:31;;;;;;;14.70;12.73;;;16.60;99.90;;;;;;5035863;28;20625;-87
2022/10/12 10:53:05;;;;;;;16.17;13.63;;;16.60;99.90;;;;;;5034822;28;20629;-87
2022/10/12 10:55:44;;;;;;;13.87;10.83;;;16.40;99.90;;;;;;5035347;28;20744;-87
2022/10/12 10:58:22;;;;;;;11.43;9.03;;;16.50;99.90;;;;;;5035160;28;20629;-86
2022/10/12 11:00:51;;;;;;;12.13;10.93;;;16.50;99.90;;;;;;5035393;28;20630;-87
2022/10/12 11:03:24;;;;;;;13.50;10.90;;;16.50;99.90;;;;;;5034346;28;21223;-86
2022/10/12 11:05:56;;;;;;;17.63;11.10;;;16.60;99.90;;;;;;5034426;28;20664;-86
2022/10/12 11:08:27;;;;;;;14.53;11.40;;;16.60;99.90;;;;;;5034848;28;21231;-86
2022/10/12 11:10:57;;;;;;;17.63;13.60;;;16.60;99.90;;;;;;5035343;28;21041;-87
2022/10/12 11:13:28;;;;;;;20.33;13.27;;;16.70;99.90;;;;;;5040454;28;20630;-87
2022/10/12 11:15:59;;;;;;;15.00;11.40;;;16.70;99.90;;;;;;5035933;28;21500;-87
2022/10/12 11:18:34;;;;;;;16.43;12.90;;;16.60;99.90;;;;;;5034892;28;21327;-87
2022/10/12 11:21:04;;;;;;;12.00;11.00;;;16.70;99.90;;;;;;5036445;28;20624;-86
2022/10/12 11:23:40;;;;;;;13.53;12.30;;;16.60;99.90;;;;;;5037417;28;20704;-86
2022/10/12 11:26:14;;;;;;;12.07;10.90;;;16.60;99.90;;;;;;5039216;28;20661;-86
2022/10/12 11:28:41;;;;;;;13.20;12.00;;;16.70;99.90;;;;;;5039048;28;20614;-87
2022/10/12 11:31:17;;;;;;;10.37;8.57;;;16.70;99.90;;;;;;5038899;28;20656;-88
2022/10/12 11:33:46;;;;;;;12.80;9.70;;;17.10;99.90;;;;;;5039078;28;20634;-87
2022/10/12 11:36:18;;;;;;;12.33;11.13;;;16.80;99.90;;;;;;5041362;28;20657;-87
2022/10/12 11:38:49;;;;;;;12.33;11.13;;;16.80;99.90;;;;;;5037996;28;22391;-87
2022/10/12 11:41:20;;;;;;;11.03;9.30;;;17.00;99.90;;;;;;5039380;28;21235;-85
2022/10/12 11:43:52;;;;;;;15.47;9.87;;;17.40;99.90;;;;;;5038169;28;20664;-85
2022/10/12 11:46:23;;;;;;;13.30;9.30;;;17.60;99.90;;;;;;5038577;28;20688;-87
2022/10/12 11:48:56;;;;;;;12.70;8.73;;;17.40;99.90;;;;;;5039032;28;20633;-84
2022/10/12 11:51:24;;;;;;;12.03;8.93;;;17.00;99.90;;;;;;5038623;28;20645;-87
2022/10/12 11:54:00;;;;;;;11.13;9.40;;;17.10;99.90;;;;;;5039306;28;20977;-85
2022/10/12 11:56:32;;;;;;;8.23;7.00;;;17.00;99.90;;;;;;5038361;28;20680;-85
2022/10/12 11:59:05;;;;;;;8.73;7.50;;;17.40;99.90;;;;;;5038507;28;20648;-85
2022/10/12 12:01:46;;;;;;;9.03;8.10;;;17.30;99.90;;;;;;5038877;28;20639;-85
2022/10/12 12:04:23;;;;;;;10.60;7.97;;;17.40;99.90;;;;;;5036437;28;21021;-85
2022/10/12 12:06:56;;;;;;;9.67;7.77;;;17.50;99.90;;;;;;5038032;28;20668;-85
2022/10/12 12:09:39;;;;;;;12.40;7.80;;;17.70;99.90;;;;;;5038502;28;20643;-85
2022/10/12 12:12:27;;;;;;;9.23;6.47;;;17.20;99.90;;;;;;5038075;28;20629;-85
2022/10/12 12:15:05;;;;;;;10.53;7.03;;;17.30;99.90;;;;;;5032541;28;20648;-86
2022/10/12 12:17:33;;;;;;;17.10;7.90;;;17.40;99.90;;;;;;5038049;28;20586;-85
2022/10/12 12:20:01;;;;;;;7.97;6.50;;;17.40;99.90;;;;;;5038855;28;20622;-85
2022/10/12 12:22:33;;;;;;;13.10;9.10;;;16.60;99.90;;;;;;5037097;28;20644;-85
2022/10/12 12:25:29;;;;;;;9.13;8.20;;;16.70;99.90;;;;;;5039411;28;20634;-86
2022/10/12 12:27:58;;;;;;;10.27;8.23;;;16.80;99.90;;;;;;5036413;28;20708;-85
2022/10/12 12:30:33;;;;;;;13.97;7.87;;;17.00;99.90;;;;;;5038307;28;20609;-86
2022/10/12 12:33:01;;;;;;;11.10;8.47;;;17.00;99.90;;;;;;5038557;28;21378;-85
2022/10/12 12:35:36;;;;;;;11.27;7.77;;;17.00;99.90;;;;;;5038852;28;20665;-85
2022/10/12 12:38:20;;;;;;;9.53;8.57;;;16.90;99.90;;;;;;5038392;28;20629;-85
2022/10/12 12:41:01;;;;;;;9.20;8.40;;;17.00;99.90;;;;;;5038758;28;20627;-86
2022/10/12 12:43:54;;;;;;;9.47;7.73;;;17.30;99.90;;;;;;5037247;28;21162;-85